Hanapepe, HI (96716)

7:19 PM HST on August 28, 2016 (GMT -1000)
Lawai | | Change Station

Elev 512 ft 21.92 °N, 159.51 °W | Updated 19 seconds ago

Clear
Clear
74.8 °F
Feels Like 75 °F
N
4.0
Wind Variable Wind from West
Gusts 5.0 mph

Today
High -- | Low -- °F
--% Chance of Precip.
Yesterday
High -- | Low -- °F
Precip. -- in
Pressure 29.93 in
Visibility 10.0 miles
Clouds Clear
Heat Index 75 °F
Dew Point 68 °F
Humidity 80%
Rainfall 0.15 in
Snow Depth Not available.
6:20 AM 6:57 PM
Waning Crescent, 11% visible
METAR PHBK 290456Z AUTO 00000KT 10SM CLR 29/19 A2992 RMK AO2 SLP135 T02890194
Pressure 29.93 in
Visibility 10.0 miles
Clouds Clear
Heat Index 75 °F
Dew Point 68 °F
Humidity 80%
Rainfall 0.15 in
Snow Depth Not available.
6:20 AM 6:57 PM
Waning Crescent, 11% visible
METAR PHBK 290456Z AUTO 00000KT 10SM CLR 29/19 A2992 RMK AO2 SLP135 T02890194

10-Day Weather Forecast

Almanac

Astronomy

Aug. 28, 2016 Rise Set
Actual Time
Civil Twilight
Nautical Twilight
Astronomical Twilight
Moon
Length of Visible Light
Length of Day
Tomorrow will be .
, % of the Moon is Illuminated

Today's Extremes

State Highs State Lows

Community

WunderPhotos

Upload Photos

1,935,800 photos uploaded!

WunderBlog® & News

Nearby

Air Quality

  Air Quality AQ Index Pollutant
Not available.

Snow Depth

Station Depth Elevation

Earthquake Activity

City Distance Mag. Time & Date
Minimum magnitude displayed is 2.5.

Coastal Water Temperatures

Place Temperature

Stations

Nearby Weather Stations

Station Location Temp. Windchill Dew Point Humidity Wind Precip. Elev Updated Type
                   

Watches & Warnings

There are currently no watches in effect.